Time;durP1;ratioP1;P1;durP2;ratioP2;P2;SDS_P1;SDS_P2;PMS_P1;PMS_P2;Temp;Humidity;BMP_temperature;BMP_pressure;BME280_temperature;BME280_humidity;BME280_pressure;Samples;Min_cycle;Max_cycle;Signal;HPM_P1;HPM_P2
2021/05/29 07:41:07;;;;;;;8.57;4.35;;;20.70;93.00;;;;;;5087555;28;20116;-69
2021/05/29 07:43:33;;;;;;;6.07;4.82;;;20.90;92.40;;;;;;5096953;28;20509;-68
2021/05/29 07:45:59;;;;;;;5.43;4.88;;;21.20;91.50;;;;;;5095447;28;20031;-74
2021/05/29 07:48:26;;;;;;;5.25;4.50;;;21.30;90.90;;;;;;5079678;28;20017;-79
2021/05/29 07:50:59;;;;;;;7.32;4.28;;;21.50;89.80;;;;;;5087871;28;20029;-75
2021/05/29 07:53:26;;;;;;;4.80;3.90;;;21.80;89.60;;;;;;5087132;28;20376;-76
2021/05/29 07:55:52;;;;;;;4.95;3.55;;;22.20;90.00;;;;;;5088673;28;20021;-64
2021/05/29 07:58:18;;;;;;;5.03;3.33;;;22.40;90.20;;;;;;5085029;28;20164;-65
2021/05/29 08:00:49;;;;;;;4.80;3.45;;;22.40;90.20;;;;;;5088537;28;20032;-64
2021/05/29 08:03:14;;;;;;;5.57;3.25;;;22.60;90.10;;;;;;5088849;28;20494;-67
2021/05/29 08:05:40;;;;;;;4.90;3.20;;;22.70;90.00;;;;;;5088365;28;20022;-67
2021/05/29 08:08:05;;;;;;;6.07;3.53;;;22.90;89.70;;;;;;5088686;28;20077;-64
2021/05/29 08:10:31;;;;;;;5.47;3.15;;;22.80;90.10;;;;;;5087928;28;20023;-66
2021/05/29 08:12:57;;;;;;;4.80;2.72;;;22.80;89.70;;;;;;5089439;28;20055;-65
2021/05/29 08:15:22;;;;;;;5.38;2.67;;;23.00;89.60;;;;;;5093829;28;20095;-65
2021/05/29 08:17:48;;;;;;;4.75;2.55;;;23.00;89.40;;;;;;5089254;28;20040;-64
2021/05/29 08:20:13;;;;;;;4.68;2.88;;;23.10;89.00;;;;;;5101024;28;20495;-66
2021/05/29 08:22:39;;;;;;;6.95;2.83;;;23.30;88.80;;;;;;5088939;28;20032;-63
2021/05/29 08:25:06;;;;;;;4.78;2.00;;;23.20;90.00;;;;;;5104529;28;20020;-65
2021/05/29 08:27:31;;;;;;;2.97;2.22;;;23.40;89.20;;;;;;5093575;28;20048;-65
2021/05/29 08:29:58;;;;;;;4.88;2.40;;;23.50;88.20;;;;;;5096971;28;20091;-65
2021/05/29 08:32:24;;;;;;;4.25;2.38;;;23.80;87.70;;;;;;5090275;28;20025;-67
2021/05/29 08:34:50;;;;;;;5.90;2.38;;;23.70;87.10;;;;;;5087716;28;20039;-68
2021/05/29 08:37:16;;;;;;;7.90;2.38;;;23.70;88.20;;;;;;5093043;28;20016;-66
2021/05/29 08:39:41;;;;;;;3.30;2.13;;;23.70;90.20;;;;;;5105893;28;20032;-66
2021/05/29 08:42:08;;;;;;;3.65;2.40;;;23.70;90.00;;;;;;5095465;28;20063;-66
2021/05/29 08:44:34;;;;;;;4.00;2.35;;;23.90;88.70;;;;;;5101575;28;20012;-66
2021/05/29 08:47:02;;;;;;;4.70;2.30;;;24.00;87.90;;;;;;5102134;28;20485;-68
2021/05/29 08:49:28;;;;;;;3.92;2.17;;;23.80;87.60;;;;;;5100829;28;20072;-67
2021/05/29 08:51:56;;;;;;;5.82;2.60;;;24.00;87.10;;;;;;5087766;28;20032;-67
2021/05/29 08:54:22;;;;;;;2.78;1.83;;;23.90;86.30;;;;;;5079505;28;20052;-67
2021/05/29 08:56:47;;;;;;;3.15;1.90;;;23.70;87.10;;;;;;5080174;28;20546;-66
2021/05/29 08:59:13;;;;;;;2.15;1.90;;;23.90;86.40;;;;;;5082579;28;20028;-64
2021/05/29 09:01:39;;;;;;;3.85;2.00;;;24.20;85.80;;;;;;5079896;28;20025;-66
2021/05/29 09:04:06;;;;;;;2.88;1.77;;;24.30;85.20;;;;;;5079865;28;20031;-67
2021/05/29 09:06:32;;;;;;;3.20;1.80;;;24.40;84.30;;;;;;5088858;28;20459;-64
2021/05/29 09:09:12;;;;;;;2.50;1.65;;;24.20;85.20;;;;;;5076764;28;20048;-67
2021/05/29 09:11:51;;;;;;;2.10;1.80;;;24.40;84.90;;;;;;5078336;28;20036;-68
2021/05/29 09:14:32;;;;;;;3.03;1.92;;;24.60;84.30;;;;;;5070882;28;20111;-66
2021/05/29 09:17:10;;;;;;;2.70;1.67;;;24.40;84.20;;;;;;5077838;28;20044;-65
2021/05/29 09:19:56;;;;;;;3.42;1.77;;;24.50;84.20;;;;;;5086244;28;20445;-66
2021/05/29 09:22:44;;;;;;;2.40;1.50;;;24.70;83.80;;;;;;5070775;28;20074;-62
2021/05/29 09:25:22;;;;;;;1.98;1.77;;;24.30;83.40;;;;;;5070177;28;20024;-65
2021/05/29 09:28:02;;;;;;;2.50;1.55;;;24.40;83.90;;;;;;5068030;28;20032;-66
2021/05/29 09:30:41;;;;;;;3.15;1.70;;;24.00;84.20;;;;;;5072125;28;20024;-62
2021/05/29 09:33:20;;;;;;;3.72;1.70;;;23.90;85.10;;;;;;5075153;28;20499;-66
2021/05/29 09:35:54;;;;;;;3.92;1.88;;;23.80;85.80;;;;;;5088246;28;20027;-64
2021/05/29 09:38:20;;;;;;;3.35;2.08;;;23.80;86.10;;;;;;5075876;28;20378;-69
2021/05/29 09:40:54;;;;;;;3.17;2.58;;;24.10;86.00;;;;;;5089086;28;20047;-64
2021/05/29 09:43:20;;;;;;;3.78;2.17;;;24.10;85.60;;;;;;5078561;28;20016;-66
2021/05/29 09:46:01;;;;;;;2.95;2.17;;;23.90;86.00;;;;;;5085690;28;20036;-64
2021/05/29 09:48:28;;;;;;;3.28;2.05;;;23.70;86.60;;;;;;5083515;28;20035;-63
2021/05/29 09:51:06;;;;;;;3.13;2.13;;;23.70;86.80;;;;;;5072202;28;20031;-62
2021/05/29 09:53:54;;;;;;;3.53;2.20;;;23.40;87.40;;;;;;5070570;28;20083;-62
2021/05/29 09:56:31;;;;;;;2.10;1.83;;;23.10;88.50;;;;;;5072205;28;20123;-64
2021/05/29 09:59:13;;;;;;;5.15;2.10;;;23.00;88.60;;;;;;5072752;28;20033;-63
2021/05/29 10:01:45;;;;;;;3.72;2.50;;;22.90;88.90;;;;;;5072600;28;20050;-62
2021/05/29 10:04:28;;;;;;;2.17;1.73;;;22.90;88.80;;;;;;5071962;28;20432;-63
2021/05/29 10:07:00;;;;;;;5.05;2.17;;;22.90;89.10;;;;;;5072702;28;20107;-63
2021/05/29 10:09:27;;;;;;;3.33;2.37;;;22.80;89.10;;;;;;5071201;28;20480;-64
2021/05/29 10:11:53;;;;;;;3.42;2.15;;;22.70;89.50;;;;;;5070096;28;20032;-69
2021/05/29 10:14:19;;;;;;;2.88;2.10;;;23.10;89.50;;;;;;5077561;28;20107;-65
2021/05/29 10:16:50;;;;;;;2.85;2.00;;;23.20;88.90;;;;;;5082416;28;20020;-68
2021/05/29 10:19:22;;;;;;;3.95;2.20;;;23.10;88.80;;;;;;5072357;28;20029;-69
2021/05/29 10:21:49;;;;;;;2.85;2.38;;;23.10;88.80;;;;;;5082618;28;20025;-66
2021/05/29 10:24:15;;;;;;;3.95;1.77;;;23.50;88.40;;;;;;5077642;28;20349;-63
2021/05/29 10:26:42;;;;;;;3.35;2.13;;;23.80;87.90;;;;;;5078054;28;20103;-65
2021/05/29 10:29:08;;;;;;;2.42;1.85;;;23.90;87.10;;;;;;5079514;28;20063;-65
2021/05/29 10:31:36;;;;;;;3.83;1.98;;;24.00;87.40;;;;;;5087934;28;20077;-64
2021/05/29 10:34:03;;;;;;;2.95;1.85;;;24.20;86.80;;;;;;5058901;28;20044;-63
2021/05/29 10:36:40;;;;;;;3.83;1.88;;;24.20;86.80;;;;;;5084436;28;20021;-63
2021/05/29 10:39:12;;;;;;;3.05;2.00;;;24.00;86.70;;;;;;5079210;28;20054;-63
2021/05/29 10:41:54;;;;;;;4.70;1.90;;;24.00;87.10;;;;;;5069994;28;20029;-64
2021/05/29 10:44:32;;;;;;;3.38;2.00;;;23.50;88.10;;;;;;5085863;28;20017;-63
2021/05/29 10:47:20;;;;;;;4.18;2.08;;;23.90;88.00;;;;;;5082614;28;20542;-64
2021/05/29 10:49:51;;;;;;;3.25;1.70;;;24.10;87.30;;;;;;5073604;28;20139;-63
2021/05/29 10:52:35;;;;;;;4.82;1.88;;;24.30;87.10;;;;;;5077045;28;20027;-65
2021/05/29 10:55:23;;;;;;;2.72;1.60;;;24.20;87.40;;;;;;5079712;28;20507;-64
2021/05/29 10:58:01;;;;;;;2.90;1.70;;;24.10;88.00;;;;;;5087969;28;20088;-61
2021/05/29 11:00:36;;;;;;;2.47;1.50;;;24.40;87.00;;;;;;5078155;28;20585;-65
2021/05/29 11:03:16;;;;;;;3.45;1.65;;;24.60;86.70;;;;;;5073778;28;20365;-65
2021/05/29 11:06:30;;;;;;;2.60;1.58;;;24.10;87.10;;;;;;5083677;28;20024;-65
2021/05/29 11:09:00;;;;;;;2.95;1.70;;;23.90;88.00;;;;;;5021152;28;20543;-65
2021/05/29 11:14:16;;;;;;;3.08;1.52;;;24.20;87.60;;;;;;5060660;28;20024;-64
2021/05/29 11:16:53;;;;;;;2.60;1.73;;;24.40;87.00;;;;;;5086732;28;20031;-64
2021/05/29 11:19:30;;;;;;;3.97;2.10;;;24.10;86.80;;;;;;5077474;28;20037;-64
2021/05/29 11:22:05;;;;;;;4.13;1.88;;;23.60;88.50;;;;;;5076543;28;20034;-64
2021/05/29 11:24:35;;;;;;;3.08;1.85;;;23.70;88.60;;;;;;5072761;28;20030;-64
2021/05/29 11:27:06;;;;;;;3.22;2.03;;;23.80;88.10;;;;;;5082577;28;20053;-66
2021/05/29 11:29:54;;;;;;;2.53;1.98;;;23.50;88.70;;;;;;5074827;28;20113;-65
2021/05/29 11:35:23;;;;;;;2.83;1.83;;;23.50;89.20;;;;;;5070332;28;20020;-65
2021/05/29 11:37:56;;;;;;;2.60;1.90;;;23.40;89.10;;;;;;5072607;28;20085;-65
2021/05/29 11:40:22;;;;;;;2.22;1.60;;;23.40;89.20;;;;;;5070452;28;20036;-65
2021/05/29 11:42:49;;;;;;;2.28;1.58;;;23.50;89.00;;;;;;5079806;28;20106;-64
2021/05/29 11:45:19;;;;;;;2.22;1.48;;;23.50;89.10;;;;;;5085644;28;20031;-65
2021/05/29 11:47:45;;;;;;;2.75;1.50;;;23.40;88.90;;;;;;5073363;28;20023;-64
2021/05/29 11:50:17;;;;;;;3.13;1.70;;;23.50;88.70;;;;;;5086218;28;20021;-65
2021/05/29 11:52:44;;;;;;;2.25;1.60;;;23.70;88.40;;;;;;5072487;28;20021;-64
2021/05/29 11:55:11;;;;;;;1.63;1.35;;;23.70;88.40;;;;;;5069917;28;20028;-64
2021/05/29 11:57:57;;;;;;;2.40;1.50;;;23.80;88.00;;;;;;5085382;28;20048;-65
2021/05/29 12:00:23;;;;;;;2.10;1.75;;;23.90;87.70;;;;;;5075997;28;20032;-66
2021/05/29 12:02:52;;;;;;;2.38;1.70;;;24.00;87.50;;;;;;5080779;28;20146;-64
2021/05/29 12:05:19;;;;;;;1.98;1.75;;;24.20;86.90;;;;;;5070565;28;20032;-64
2021/05/29 12:07:59;;;;;;;2.13;1.70;;;24.20;87.00;;;;;;5071084;28;20455;-65
2021/05/29 12:10:24;;;;;;;2.30;1.95;;;24.40;86.60;;;;;;5082071;28;20059;-64
2021/05/29 12:12:52;;;;;;;2.50;1.83;;;24.40;86.50;;;;;;5077151;28;20052;-64
2021/05/29 12:15:18;;;;;;;2.10;1.83;;;24.30;86.40;;;;;;5072551;28;20513;-65
2021/05/29 12:17:45;;;;;;;2.92;1.75;;;24.40;86.50;;;;;;5078870;28;20112;-66
2021/05/29 12:20:12;;;;;;;2.30;1.70;;;24.60;86.50;;;;;;5069526;28;20069;-66
2021/05/29 12:22:37;;;;;;;2.42;1.80;;;24.50;86.50;;;;;;5081851;28;20025;-67
2021/05/29 12:25:10;;;;;;;2.30;2.10;;;24.40;86.70;;;;;;5082346;28;20025;-68
2021/05/29 12:27:43;;;;;;;2.70;1.95;;;24.50;86.70;;;;;;5076882;28;20021;-67
2021/05/29 12:30:15;;;;;;;2.53;2.20;;;24.50;86.40;;;;;;5063243;28;20023;-69
2021/05/29 12:32:48;;;;;;;3.50;2.33;;;24.50;86.50;;;;;;5085038;28;20590;-66
2021/05/29 12:35:32;;;;;;;2.85;1.77;;;24.30;87.30;;;;;;5087883;28;20373;-68
2021/05/29 12:38:18;;;;;;;2.65;1.77;;;24.30;86.60;;;;;;5076077;28;20114;-68
2021/05/29 12:41:00;;;;;;;2.55;1.88;;;24.20;86.70;;;;;;5071889;28;20127;-68
2021/05/29 12:43:29;;;;;;;2.83;2.05;;;24.20;86.80;;;;;;5079047;28;20377;-69
2021/05/29 12:45:55;;;;;;;2.30;2.00;;;24.40;86.60;;;;;;5084831;28;20082;-65
2021/05/29 12:48:20;;;;;;;3.28;2.20;;;24.40;86.80;;;;;;5085206;28;20468;-65
2021/05/29 12:53:38;;;;;;;3.20;2.08;;;24.50;86.40;;;;;;5073720;28;20353;-64
2021/05/29 12:56:15;;;;;;;2.58;1.77;;;24.40;86.50;;;;;;5072943;28;20474;-64
2021/05/29 12:58:55;;;;;;;3.65;2.08;;;24.20;87.90;;;;;;5083852;28;20126;-64
2021/05/29 13:12:15;;;;;;;2.40;1.52;;;24.20;87.00;;;;;;5090118;28;20028;-64
2021/05/29 13:14:42;;;;;;;1.90;1.75;;;24.20;86.80;;;;;;5081920;28;20499;-65
2021/05/29 13:17:20;;;;;;;2.45;1.77;;;24.00;87.20;;;;;;5080932;28;20035;-64
2021/05/29 13:19:50;;;;;;;3.33;1.88;;;24.10;87.40;;;;;;5080197;28;20185;-65
2021/05/29 13:22:23;;;;;;;1.85;1.48;;;24.30;86.90;;;;;;5088268;28;20024;-64
2021/05/29 13:24:54;;;;;;;2.83;1.50;;;24.10;87.20;;;;;;5082268;28;20418;-64
2021/05/29 13:27:42;;;;;;;2.63;2.00;;;24.20;87.60;;;;;;5079043;28;20021;-64
2021/05/29 13:30:26;;;;;;;2.53;1.88;;;24.10;86.90;;;;;;5061630;28;20028;-65
2021/05/29 13:33:09;;;;;;;2.45;1.95;;;24.10;86.80;;;;;;5081480;28;20028;-64
2021/05/29 13:35:36;;;;;;;2.65;1.88;;;24.00;87.00;;;;;;5089545;28;20024;-65
2021/05/29 13:38:03;;;;;;;2.88;1.90;;;24.10;87.10;;;;;;5076182;28;20020;-65
2021/05/29 13:40:29;;;;;;;2.40;1.90;;;24.10;87.10;;;;;;5085289;28;20134;-64
2021/05/29 13:42:55;;;;;;;1.73;1.63;;;23.90;87.10;;;;;;5084104;28;20039;-64
2021/05/29 13:45:25;;;;;;;2.05;1.77;;;24.10;86.90;;;;;;5078386;28;20059;-65
2021/05/29 13:47:50;;;;;;;2.20;2.00;;;24.20;86.60;;;;;;5088895;28;20024;-64
2021/05/29 13:50:17;;;;;;;3.05;2.20;;;24.20;86.70;;;;;;5078162;28;20425;-64
2021/05/29 13:52:43;;;;;;;3.95;1.90;;;24.20;86.30;;;;;;5081998;28;20021;-64
2021/05/29 13:55:10;;;;;;;1.60;1.50;;;24.20;86.70;;;;;;5084049;28;20475;-64
2021/05/29 13:57:36;;;;;;;2.67;1.73;;;24.30;86.60;;;;;;5087529;28;20111;-64
2021/05/29 14:00:06;;;;;;;2.75;1.70;;;24.30;87.00;;;;;;5076082;28;20111;-66
2021/05/29 14:02:32;;;;;;;1.52;1.38;;;24.40;86.80;;;;;;5084787;28;20013;-64
2021/05/29 14:04:57;;;;;;;2.97;1.50;;;24.40;87.10;;;;;;5083601;28;20046;-64
2021/05/29 14:07:23;;;;;;;1.83;1.23;;;24.50;88.20;;;;;;5086628;28;20023;-66
2021/05/29 14:09:48;;;;;;;1.60;1.50;;;24.30;88.10;;;;;;5074951;28;20024;-76
2021/05/29 14:12:14;;;;;;;3.45;1.40;;;24.50;87.60;;;;;;5087367;28;20086;-65
2021/05/29 14:14:40;;;;;;;2.08;1.45;;;24.40;88.00;;;;;;5080609;28;20059;-67
2021/05/29 14:17:06;;;;;;;4.32;1.23;;;24.40;87.80;;;;;;5080111;28;20037;-69
2021/05/29 14:19:32;;;;;;;4.38;1.50;;;24.70;88.90;;;;;;5077098;28;20029;-74
2021/05/29 14:21:57;;;;;;;5.78;1.42;;;25.10;88.10;;;;;;5088886;28;20032;-72
2021/05/29 14:24:23;;;;;;;3.00;1.40;;;24.80;88.30;;;;;;5078389;28;20020;-74
2021/05/29 14:26:48;;;;;;;2.60;1.20;;;24.90;88.70;;;;;;5081153;28;20070;-74
2021/05/29 14:29:14;;;;;;;2.33;1.25;;;25.20;88.80;;;;;;5074941;28;20123;-74
2021/05/29 14:31:40;;;;;;;3.95;1.27;;;25.20;88.80;;;;;;5078241;28;20032;-73
2021/05/29 14:34:08;;;;;;;2.00;1.40;;;25.60;88.60;;;;;;5088083;28;20021;-72
2021/05/29 14:36:34;;;;;;;2.83;1.33;;;25.90;87.50;;;;;;5079339;28;20106;-71
2021/05/29 14:39:00;;;;;;;2.40;1.10;;;25.90;87.20;;;;;;5079791;28;20033;-71
2021/05/29 14:41:26;;;;;;;1.73;1.20;;;25.90;87.50;;;;;;5087111;28;20031;-74
2021/05/29 14:43:52;;;;;;;2.72;1.40;;;26.00;88.20;;;;;;5074946;28;20477;-69
2021/05/29 14:46:18;;;;;;;3.60;1.40;;;26.30;87.50;;;;;;5086135;28;20455;-73
2021/05/29 14:48:46;;;;;;;3.50;1.10;;;26.40;86.50;;;;;;5080008;28;20468;-70
2021/05/29 14:51:16;;;;;;;1.67;1.10;;;26.20;86.60;;;;;;5088191;28;20039;-64
2021/05/29 14:53:53;;;;;;;2.20;1.30;;;26.30;85.80;;;;;;5073256;28;20021;-69
2021/05/29 14:56:25;;;;;;;1.85;1.20;;;26.40;86.50;;;;;;5087388;28;20024;-68
2021/05/29 14:58:51;;;;;;;3.90;1.20;;;26.50;86.00;;;;;;5086318;28;20032;-71
2021/05/29 15:01:17;;;;;;;3.03;1.30;;;26.60;85.90;;;;;;5077448;28;20393;-70
2021/05/29 15:03:51;;;;;;;2.53;1.13;;;26.60;86.50;;;;;;5086937;28;20103;-69
2021/05/29 15:06:18;;;;;;;1.88;1.10;;;26.50;86.10;;;;;;5061518;28;20079;-65
2021/05/29 15:08:43;;;;;;;1.33;1.23;;;26.60;86.70;;;;;;5079994;28;20074;-68
2021/05/29 15:11:09;;;;;;;1.70;1.00;;;26.40;86.80;;;;;;5085808;28;20040;-71
2021/05/29 15:13:35;;;;;;;1.55;1.00;;;26.40;86.10;;;;;;5074726;28;20021;-71
2021/05/29 15:16:01;;;;;;;1.55;1.00;;;26.00;86.60;;;;;;5086473;28;20426;-69
2021/05/29 15:18:28;;;;;;;2.85;1.08;;;25.90;87.30;;;;;;5071391;28;20026;-71
2021/05/29 15:21:09;;;;;;;1.88;0.95;;;25.90;86.90;;;;;;5081858;28;20648;-72
2021/05/29 15:23:37;;;;;;;2.88;1.02;;;26.00;86.60;;;;;;5074898;28;20024;-72
2021/05/29 15:26:07;;;;;;;2.63;1.10;;;25.80;86.80;;;;;;5058265;28;20020;-72
2021/05/29 15:28:33;;;;;;;2.10;1.10;;;25.70;86.90;;;;;;5083204;28;20031;-73
2021/05/29 15:30:59;;;;;;;1.38;1.13;;;26.00;86.90;;;;;;5082063;28;20143;-71
2021/05/29 15:33:25;;;;;;;2.47;1.17;;;26.40;86.50;;;;;;5076291;28;20032;-72
2021/05/29 15:35:51;;;;;;;2.17;1.08;;;26.40;86.80;;;;;;5087349;28;20353;-72
2021/05/29 15:38:17;;;;;;;1.70;1.17;;;26.30;86.80;;;;;;5076406;28;20537;-72
2021/05/29 15:40:42;;;;;;;2.28;1.27;;;25.70;86.40;;;;;;5081642;28;20036;-73
2021/05/29 15:43:08;;;;;;;3.10;1.65;;;25.30;87.70;;;;;;5078435;28;20051;-74
2021/05/29 15:45:37;;;;;;;2.33;1.20;;;25.40;88.40;;;;;;5086822;28;20031;-73
2021/05/29 15:48:06;;;;;;;2.50;1.40;;;25.30;88.90;;;;;;5063382;28;20028;-71
2021/05/29 15:50:32;;;;;;;2.08;1.23;;;25.30;87.00;;;;;;5083297;28;20021;-71
2021/05/29 15:52:59;;;;;;;2.35;1.20;;;25.80;87.10;;;;;;5082082;28;20052;-70
2021/05/29 15:55:25;;;;;;;2.35;1.35;;;25.70;87.60;;;;;;5074696;28;20039;-71
2021/05/29 15:57:50;;;;;;;1.23;1.13;;;26.00;86.70;;;;;;5085897;28;20095;-71
2021/05/29 16:00:17;;;;;;;3.92;1.40;;;26.10;86.90;;;;;;5085519;28;20036;-70
2021/05/29 16:02:44;;;;;;;2.13;1.10;;;26.40;85.60;;;;;;5083013;28;20375;-69
2021/05/29 16:05:11;;;;;;;1.80;1.25;;;26.50;86.00;;;;;;5090955;28;20426;-71
2021/05/29 16:07:37;;;;;;;1.95;1.33;;;26.20;86.00;;;;;;5091197;28;20443;-70
2021/05/29 16:10:03;;;;;;;2.08;1.35;;;26.30;84.90;;;;;;5078136;28;20056;-70
2021/05/29 16:12:29;;;;;;;1.95;1.00;;;26.20;86.90;;;;;;5087248;28;20032;-70
2021/05/29 16:14:54;;;;;;;2.95;1.45;;;26.40;86.90;;;;;;5085338;28;20032;-66
2021/05/29 16:17:21;;;;;;;3.15;1.30;;;25.80;88.70;;;;;;5080438;28;20131;-66
2021/05/29 16:19:48;;;;;;;2.03;1.60;;;25.50;88.30;;;;;;5090907;28;20036;-76
2021/05/29 16:22:14;;;;;;;2.58;1.35;;;25.30;87.70;;;;;;5079573;28;20047;-66
2021/05/29 16:24:39;;;;;;;2.97;1.60;;;25.20;88.50;;;;;;5084274;28;20032;-67
2021/05/29 16:27:05;;;;;;;2.45;1.63;;;25.10;87.70;;;;;;5086776;28;20052;-64
2021/05/29 16:29:32;;;;;;;7.57;1.90;;;25.40;87.40;;;;;;5078007;28;20036;-67
2021/05/29 16:31:57;;;;;;;3.35;1.92;;;25.60;88.70;;;;;;5083193;28;20107;-65
2021/05/29 16:34:23;;;;;;;2.83;1.55;;;25.80;86.60;;;;;;5073421;28;20571;-67
2021/05/29 16:36:49;;;;;;;7.78;1.65;;;25.90;87.60;;;;;;5083799;28;20023;-64
2021/05/29 16:39:14;;;;;;;1.90;1.40;;;25.70;88.80;;;;;;5080527;28;20031;-64
2021/05/29 16:41:42;;;;;;;4.60;1.40;;;26.20;86.40;;;;;;5090654;28;20032;-64
2021/05/29 16:44:08;;;;;;;3.70;1.30;;;26.30;87.50;;;;;;5077586;28;20024;-62
2021/05/29 16:46:34;;;;;;;4.95;1.75;;;26.30;87.30;;;;;;5085999;28;20472;-65
2021/05/29 16:49:03;;;;;;;5.18;1.70;;;26.10;87.50;;;;;;5085286;28;20062;-66
2021/05/29 16:51:28;;;;;;;3.17;1.38;;;26.00;89.80;;;;;;5078333;28;20373;-65
2021/05/29 16:53:55;;;;;;;2.80;1.20;;;25.40;89.60;;;;;;5090666;28;20084;-68
2021/05/29 16:56:21;;;;;;;2.08;1.20;;;25.10;89.60;;;;;;5080008;28;20024;-67
2021/05/29 16:58:47;;;;;;;2.17;1.35;;;25.10;89.20;;;;;;5084078;28;20035;-66
2021/05/29 17:01:12;;;;;;;1.90;1.40;;;25.00;89.40;;;;;;5086901;28;20491;-64
2021/05/29 17:03:41;;;;;;;1.20;1.10;;;25.10;89.00;;;;;;5076449;28;20155;-64
2021/05/29 17:06:09;;;;;;;1.95;1.15;;;25.10;88.30;;;;;;5089055;28;20187;-68
2021/05/29 17:08:39;;;;;;;1.50;1.20;;;25.10;88.30;;;;;;5085369;28;20016;-65
2021/05/29 17:11:08;;;;;;;2.90;1.30;;;25.20;87.70;;;;;;5085597;28;20544;-67
2021/05/29 17:13:39;;;;;;;2.22;1.33;;;25.10;86.90;;;;;;5076148;28;20024;-66
2021/05/29 17:16:06;;;;;;;1.90;1.50;;;25.00;87.10;;;;;;5072050;28;20020;-66
2021/05/29 17:18:32;;;;;;;3.55;1.67;;;25.40;87.50;;;;;;5085480;28;20574;-67
2021/05/29 17:20:59;;;;;;;1.90;1.40;;;25.90;85.90;;;;;;5084103;28;20040;-63
2021/05/29 17:23:25;;;;;;;2.70;1.40;;;26.10;84.70;;;;;;5078704;28;20111;-65
2021/05/29 17:25:51;;;;;;;2.20;1.33;;;26.20;85.50;;;;;;5089679;28;20154;-62
2021/05/29 17:28:17;;;;;;;1.55;1.40;;;26.20;86.50;;;;;;5078455;28;20016;-69
2021/05/29 17:30:43;;;;;;;2.28;1.40;;;26.10;86.10;;;;;;5084336;28;20028;-63
2021/05/29 17:33:09;;;;;;;2.97;2.17;;;26.10;88.20;;;;;;5080631;28;20368;-63
2021/05/29 17:35:36;;;;;;;2.90;1.90;;;26.30;86.10;;;;;;5089190;28;20035;-69
2021/05/29 17:38:03;;;;;;;2.38;1.75;;;26.20;85.80;;;;;;5059604;28;20020;-69
2021/05/29 17:40:28;;;;;;;4.65;2.28;;;26.30;86.20;;;;;;5084948;28;20043;-65
2021/05/29 17:42:54;;;;;;;3.22;2.55;;;26.40;86.20;;;;;;5083542;28;20032;-68
2021/05/29 17:45:20;;;;;;;3.85;2.58;;;26.30;84.70;;;;;;5078810;28;20052;-67
2021/05/29 17:47:46;;;;;;;4.25;2.40;;;26.30;85.20;;;;;;5082833;28;20028;-68
2021/05/29 17:50:12;;;;;;;4.18;2.53;;;26.30;85.30;;;;;;5088190;28;20024;-68
2021/05/29 17:52:39;;;;;;;3.00;2.33;;;26.30;85.90;;;;;;5080113;28;20028;-67
2021/05/29 17:55:05;;;;;;;4.80;2.92;;;26.10;86.30;;;;;;5080571;28;20036;-70
2021/05/29 17:57:41;;;;;;;4.47;3.03;;;26.20;86.00;;;;;;5084328;28;20016;-70
2021/05/29 18:03:02;;;;;;;5.45;3.20;;;25.70;87.10;;;;;;5075751;28;20108;-66
2021/05/29 18:05:28;;;;;;;4.10;3.30;;;26.10;86.80;;;;;;5077316;28;20055;-71
2021/05/29 18:07:54;;;;;;;5.97;2.90;;;26.10;88.00;;;;;;5074821;28;20029;-66
2021/05/29 18:10:20;;;;;;;4.72;3.10;;;25.90;88.70;;;;;;5086660;28;20020;-67
2021/05/29 18:12:46;;;;;;;4.45;3.25;;;25.70;89.60;;;;;;5081140;28;20058;-67
2021/05/29 18:15:13;;;;;;;3.50;2.80;;;26.00;86.80;;;;;;5078819;28;20048;-65
2021/05/29 18:17:39;;;;;;;5.70;3.38;;;25.80;89.80;;;;;;5088233;28;20035;-67
2021/05/29 18:20:06;;;;;;;5.90;3.05;;;25.50;88.30;;;;;;5075773;28;20388;-66
2021/05/29 18:22:31;;;;;;;4.47;2.90;;;25.60;89.00;;;;;;5084381;28;20020;-65
2021/05/29 18:24:58;;;;;;;3.85;2.60;;;25.60;88.60;;;;;;5082534;28;20031;-66
2021/05/29 18:27:25;;;;;;;5.80;3.28;;;25.70;87.80;;;;;;5077501;28;20102;-66
2021/05/29 18:29:50;;;;;;;3.88;3.30;;;25.50;87.30;;;;;;5088260;28;20027;-67
2021/05/29 18:32:16;;;;;;;5.72;3.10;;;25.80;87.00;;;;;;5071799;28;20032;-66
2021/05/29 18:34:43;;;;;;;6.00;3.42;;;25.70;86.90;;;;;;5071334;28;20107;-67
2021/05/29 18:39:13;;;;;;;4.22;2.65;;;26.00;86.40;;;;;;5084564;28;20032;-66
2021/05/29 18:40:01;;;;;;;2.65;2.25;;;25.90;86.30;;;;;;5070528;28;20036;-65
2021/05/29 18:42:26;;;;;;;5.40;3.13;;;25.60;87.80;;;;;;5072399;28;20035;-65
2021/05/29 18:44:53;;;;;;;4.53;3.03;;;25.70;86.80;;;;;;5070868;28;20027;-66
2021/05/29 18:47:19;;;;;;;3.53;2.90;;;25.50;87.80;;;;;;5071874;28;20029;-65
2021/05/29 18:49:45;;;;;;;2.72;2.33;;;25.40;87.50;;;;;;5072193;28;20060;-66
2021/05/29 18:52:11;;;;;;;4.03;2.80;;;25.30;89.40;;;;;;5079884;28;20051;-66
2021/05/29 18:54:37;;;;;;;5.65;3.08;;;25.30;87.70;;;;;;5079386;28;20019;-67
2021/05/29 18:57:03;;;;;;;3.67;2.72;;;25.30;88.00;;;;;;5079279;28;20021;-65
2021/05/29 19:07:17;;;;;;;3.47;2.92;;;25.30;89.10;;;;;;5071567;28;20032;-65
2021/05/29 19:09:43;;;;;;;3.00;2.53;;;25.30;88.70;;;;;;5087525;28;20416;-66
2021/05/29 19:12:10;;;;;;;4.20;2.95;;;25.30;89.30;;;;;;5075294;28;20091;-66
2021/05/29 19:14:51;;;;;;;4.88;2.90;;;25.30;88.60;;;;;;5082944;28;20051;-68
2021/05/29 19:17:17;;;;;;;3.78;2.75;;;25.30;88.60;;;;;;5084985;28;20028;-67
2021/05/29 19:19:43;;;;;;;3.22;2.80;;;25.30;88.80;;;;;;5072808;28;20035;-66
2021/05/29 19:22:15;;;;;;;4.32;2.80;;;25.00;89.10;;;;;;5086885;28;20025;-67
2021/05/29 19:30:09;;;;;;;;;;;24.20;90.70;;;;;;5056204;28;20039;-64
2021/05/29 19:40:50;;;;;;;3.65;3.05;;;24.00;91.10;;;;;;5068054;28;19946;-64
2021/05/29 19:43:19;;;;;;;3.40;2.88;;;23.90;91.10;;;;;;5084506;28;20371;-64
2021/05/29 19:46:04;;;;;;;4.15;2.78;;;23.90;91.30;;;;;;5074055;28;20024;-64
